sensor_id;sensor_type;location;lat;lon;timestamp;P1;durP1;ratioP1;P2;durP2;ratioP2
19946;SDS011;10135;50.702;7.276;2024-02-21T06:02:11;8.80;;;2.90;;
19946;SDS011;10135;50.702;7.276;2024-02-21T06:04:12;6.60;;;2.80;;
19946;SDS011;10135;50.702;7.276;2024-02-21T06:06:13;6.20;;;3.27;;
19946;SDS011;10135;50.702;7.276;2024-02-21T06:08:16;4.33;;;2.73;;
19946;SDS011;10135;50.702;7.276;2024-02-21T06:10:17;5.67;;;2.47;;
19946;SDS011;10135;50.702;7.276;2024-02-21T06:12:18;6.03;;;2.83;;
19946;SDS011;10135;50.702;7.276;2024-02-21T06:14:19;7.90;;;3.00;;
19946;SDS011;10135;50.702;7.276;2024-02-21T06:16:20;6.07;;;2.73;;
19946;SDS011;10135;50.702;7.276;2024-02-21T06:18:21;4.33;;;2.57;;
19946;SDS011;10135;50.702;7.276;2024-02-21T06:20:21;5.03;;;3.10;;
19946;SDS011;10135;50.702;7.276;2024-02-21T06:22:22;7.43;;;2.87;;
19946;SDS011;10135;50.702;7.276;2024-02-21T06:24:22;4.83;;;2.60;;
19946;SDS011;10135;50.702;7.276;2024-02-21T06:26:23;4.80;;;2.67;;
19946;SDS011;10135;50.702;7.276;2024-02-21T06:28:24;6.17;;;2.90;;
19946;SDS011;10135;50.702;7.276;2024-02-21T06:30:24;5.57;;;3.07;;
19946;SDS011;10135;50.702;7.276;2024-02-21T06:32:25;7.80;;;3.33;;
19946;SDS011;10135;50.702;7.276;2024-02-21T06:34:26;6.43;;;2.80;;
19946;SDS011;10135;50.702;7.276;2024-02-21T06:36:26;5.73;;;2.77;;
19946;SDS011;10135;50.702;7.276;2024-02-21T06:38:27;4.00;;;2.67;;
19946;SDS011;10135;50.702;7.276;2024-02-21T06:40:31;8.73;;;2.90;;
19946;SDS011;10135;50.702;7.276;2024-02-21T06:42:38;5.50;;;2.40;;
19946;SDS011;10135;50.702;7.276;2024-02-21T06:44:39;6.10;;;2.67;;
19946;SDS011;10135;50.702;7.276;2024-02-21T06:46:40;8.03;;;3.20;;
19946;SDS011;10135;50.702;7.276;2024-02-21T06:48:40;5.10;;;3.00;;
19946;SDS011;10135;50.702;7.276;2024-02-21T06:50:41;5.67;;;3.33;;
19946;SDS011;10135;50.702;7.276;2024-02-21T06:52:42;4.57;;;2.70;;
19946;SDS011;10135;50.702;7.276;2024-02-21T06:54:42;5.90;;;2.67;;
19946;SDS011;10135;50.702;7.276;2024-02-21T06:56:43;7.93;;;2.50;;
19946;SDS011;10135;50.702;7.276;2024-02-21T06:58:44;6.67;;;2.90;;
19946;SDS011;10135;50.702;7.276;2024-02-21T07:00:45;7.67;;;2.90;;
19946;SDS011;10135;50.702;7.276;2024-02-21T07:02:45;7.60;;;2.70;;
19946;SDS011;10135;50.702;7.276;2024-02-21T07:04:46;4.80;;;2.70;;
19946;SDS011;10135;50.702;7.276;2024-02-21T07:06:47;4.23;;;2.57;;
19946;SDS011;10135;50.702;7.276;2024-02-21T07:08:47;6.83;;;2.83;;
19946;SDS011;10135;50.702;7.276;2024-02-21T07:10:48;6.37;;;2.77;;
19946;SDS011;10135;50.702;7.276;2024-02-21T07:12:48;4.93;;;2.97;;
19946;SDS011;10135;50.702;7.276;2024-02-21T07:14:49;6.93;;;2.53;;
19946;SDS011;10135;50.702;7.276;2024-02-21T07:16:50;6.67;;;3.00;;
19946;SDS011;10135;50.702;7.276;2024-02-21T07:18:50;7.93;;;3.20;;
19946;SDS011;10135;50.702;7.276;2024-02-21T07:20:51;7.83;;;3.27;;
19946;SDS011;10135;50.702;7.276;2024-02-21T07:22:52;4.60;;;3.10;;
19946;SDS011;10135;50.702;7.276;2024-02-21T07:24:53;4.23;;;2.50;;
19946;SDS011;10135;50.702;7.276;2024-02-21T07:26:53;6.90;;;3.20;;
19946;SDS011;10135;50.702;7.276;2024-02-21T07:28:56;6.63;;;3.40;;
19946;SDS011;10135;50.702;7.276;2024-02-21T07:30:56;5.90;;;3.40;;
19946;SDS011;10135;50.702;7.276;2024-02-21T07:32:59;8.10;;;3.40;;
19946;SDS011;10135;50.702;7.276;2024-02-21T07:35:00;4.67;;;2.80;;
19946;SDS011;10135;50.702;7.276;2024-02-21T07:37:04;3.80;;;2.73;;
19946;SDS011;10135;50.702;7.276;2024-02-21T07:39:04;5.33;;;3.00;;
19946;SDS011;10135;50.702;7.276;2024-02-21T07:41:05;8.13;;;3.10;;
19946;SDS011;10135;50.702;7.276;2024-02-21T07:43:06;5.83;;;2.97;;
19946;SDS011;10135;50.702;7.276;2024-02-21T07:45:07;6.73;;;3.40;;
19946;SDS011;10135;50.702;7.276;2024-02-21T07:47:08;5.20;;;3.20;;
19946;SDS011;10135;50.702;7.276;2024-02-21T07:49:09;6.73;;;2.97;;
19946;SDS011;10135;50.702;7.276;2024-02-21T07:51:10;7.77;;;3.37;;
19946;SDS011;10135;50.702;7.276;2024-02-21T07:53:10;7.97;;;3.47;;
19946;SDS011;10135;50.702;7.276;2024-02-21T07:55:11;9.63;;;3.10;;
19946;SDS011;10135;50.702;7.276;2024-02-21T07:57:11;4.90;;;3.40;;
19946;SDS011;10135;50.702;7.276;2024-02-21T07:59:12;7.03;;;3.20;;
19946;SDS011;10135;50.702;7.276;2024-02-21T08:01:19;5.40;;;3.17;;
19946;SDS011;10135;50.702;7.276;2024-02-21T08:03:21;5.47;;;2.73;;
19946;SDS011;10135;50.702;7.276;2024-02-21T08:05:22;8.23;;;3.17;;
19946;SDS011;10135;50.702;7.276;2024-02-21T08:07:23;5.87;;;2.90;;
19946;SDS011;10135;50.702;7.276;2024-02-21T08:09:24;8.17;;;3.10;;
19946;SDS011;10135;50.702;7.276;2024-02-21T08:11:24;7.00;;;3.60;;
19946;SDS011;10135;50.702;7.276;2024-02-21T08:13:25;5.93;;;3.13;;
19946;SDS011;10135;50.702;7.276;2024-02-21T08:15:25;4.60;;;2.90;;
19946;SDS011;10135;50.702;7.276;2024-02-21T08:17:29;6.27;;;3.13;;
19946;SDS011;10135;50.702;7.276;2024-02-21T08:19:30;6.37;;;3.13;;
19946;SDS011;10135;50.702;7.276;2024-02-21T08:21:31;4.23;;;2.80;;
19946;SDS011;10135;50.702;7.276;2024-02-21T08:23:31;5.20;;;2.73;;
19946;SDS011;10135;50.702;7.276;2024-02-21T08:25:32;4.77;;;3.07;;
19946;SDS011;10135;50.702;7.276;2024-02-21T08:27:33;4.93;;;2.63;;
19946;SDS011;10135;50.702;7.276;2024-02-21T08:29:34;5.63;;;2.97;;
19946;SDS011;10135;50.702;7.276;2024-02-21T08:31:35;2.97;;;2.50;;
19946;SDS011;10135;50.702;7.276;2024-02-21T08:33:35;6.57;;;2.80;;
19946;SDS011;10135;50.702;7.276;2024-02-21T08:35:36;5.40;;;2.77;;
19946;SDS011;10135;50.702;7.276;2024-02-21T08:37:36;8.67;;;3.23;;
19946;SDS011;10135;50.702;7.276;2024-02-21T08:39:37;3.57;;;2.53;;
19946;SDS011;10135;50.702;7.276;2024-02-21T08:41:38;5.83;;;3.10;;
19946;SDS011;10135;50.702;7.276;2024-02-21T08:43:38;5.97;;;3.50;;
19946;SDS011;10135;50.702;7.276;2024-02-21T08:45:39;5.93;;;3.10;;
19946;SDS011;10135;50.702;7.276;2024-02-21T08:47:40;6.33;;;2.97;;
19946;SDS011;10135;50.702;7.276;2024-02-21T08:49:41;5.37;;;3.10;;
19946;SDS011;10135;50.702;7.276;2024-02-21T08:51:41;7.60;;;3.13;;
19946;SDS011;10135;50.702;7.276;2024-02-21T08:53:46;4.97;;;2.90;;
19946;SDS011;10135;50.702;7.276;2024-02-21T08:55:49;9.37;;;3.20;;
19946;SDS011;10135;50.702;7.276;2024-02-21T08:57:50;7.57;;;3.00;;
19946;SDS011;10135;50.702;7.276;2024-02-21T08:59:50;5.47;;;3.10;;
19946;SDS011;10135;50.702;7.276;2024-02-21T09:01:51;7.43;;;3.20;;
19946;SDS011;10135;50.702;7.276;2024-02-21T09:03:55;6.93;;;3.20;;
19946;SDS011;10135;50.702;7.276;2024-02-21T09:05:56;6.43;;;3.07;;
19946;SDS011;10135;50.702;7.276;2024-02-21T09:07:57;4.10;;;2.80;;
19946;SDS011;10135;50.702;7.276;2024-02-21T09:09:57;4.77;;;2.80;;
19946;SDS011;10135;50.702;7.276;2024-02-21T09:11:58;7.33;;;3.20;;
19946;SDS011;10135;50.702;7.276;2024-02-21T09:14:05;5.27;;;3.03;;
19946;SDS011;10135;50.702;7.276;2024-02-21T09:16:06;6.90;;;2.83;;
19946;SDS011;10135;50.702;7.276;2024-02-21T09:18:07;5.83;;;2.73;;
19946;SDS011;10135;50.702;7.276;2024-02-21T09:20:07;5.90;;;2.80;;
19946;SDS011;10135;50.702;7.276;2024-02-21T09:22:11;7.53;;;3.30;;
19946;SDS011;10135;50.702;7.276;2024-02-21T09:24:12;7.33;;;2.93;;
19946;SDS011;10135;50.702;7.276;2024-02-21T09:26:13;5.63;;;3.13;;
19946;SDS011;10135;50.702;7.276;2024-02-21T09:28:16;6.03;;;2.90;;
19946;SDS011;10135;50.702;7.276;2024-02-21T09:30:16;4.43;;;2.53;;
19946;SDS011;10135;50.702;7.276;2024-02-21T09:32:18;6.07;;;2.80;;
19946;SDS011;10135;50.702;7.276;2024-02-21T09:34:19;6.00;;;2.70;;
19946;SDS011;10135;50.702;7.276;2024-02-21T09:36:19;4.73;;;2.83;;
19946;SDS011;10135;50.702;7.276;2024-02-21T09:38:21;6.67;;;3.10;;
19946;SDS011;10135;50.702;7.276;2024-02-21T09:40:21;8.97;;;3.13;;
19946;SDS011;10135;50.702;7.276;2024-02-21T09:42:22;3.73;;;2.80;;
19946;SDS011;10135;50.702;7.276;2024-02-21T09:44:38;5.23;;;3.00;;
19946;SDS011;10135;50.702;7.276;2024-02-21T09:46:52;6.17;;;2.90;;
19946;SDS011;10135;50.702;7.276;2024-02-21T09:49:19;6.50;;;2.83;;
19946;SDS011;10135;50.702;7.276;2024-02-21T09:51:34;8.33;;;2.70;;
19946;SDS011;10135;50.702;7.276;2024-02-21T09:53:37;3.77;;;2.40;;
19946;SDS011;10135;50.702;7.276;2024-02-21T09:55:38;6.17;;;2.60;;
19946;SDS011;10135;50.702;7.276;2024-02-21T09:57:41;8.13;;;2.80;;
19946;SDS011;10135;50.702;7.276;2024-02-21T09:59:44;5.27;;;2.80;;
19946;SDS011;10135;50.702;7.276;2024-02-21T10:01:45;8.00;;;2.80;;
19946;SDS011;10135;50.702;7.276;2024-02-21T10:03:50;8.33;;;2.90;;
19946;SDS011;10135;50.702;7.276;2024-02-21T10:05:51;5.60;;;2.80;;
19946;SDS011;10135;50.702;7.276;2024-02-21T10:07:52;4.07;;;3.00;;
19946;SDS011;10135;50.702;7.276;2024-02-21T10:10:03;5.67;;;2.83;;
19946;SDS011;10135;50.702;7.276;2024-02-21T10:12:11;5.47;;;2.73;;
19946;SDS011;10135;50.702;7.276;2024-02-21T10:14:12;6.67;;;2.73;;
19946;SDS011;10135;50.702;7.276;2024-02-21T10:16:14;4.10;;;2.30;;
19946;SDS011;10135;50.702;7.276;2024-02-21T10:18:17;8.87;;;3.17;;
19946;SDS011;10135;50.702;7.276;2024-02-21T10:20:18;7.27;;;2.80;;
19946;SDS011;10135;50.702;7.276;2024-02-21T10:22:19;5.97;;;2.47;;
19946;SDS011;10135;50.702;7.276;2024-02-21T10:24:26;6.07;;;2.90;;
19946;SDS011;10135;50.702;7.276;2024-02-21T10:26:28;9.20;;;3.13;;
19946;SDS011;10135;50.702;7.276;2024-02-21T10:28:28;4.23;;;2.60;;
19946;SDS011;10135;50.702;7.276;2024-02-21T10:30:29;6.20;;;2.77;;
19946;SDS011;10135;50.702;7.276;2024-02-21T10:32:30;9.50;;;2.90;;
19946;SDS011;10135;50.702;7.276;2024-02-21T10:34:30;5.13;;;2.70;;
19946;SDS011;10135;50.702;7.276;2024-02-21T10:36:31;5.20;;;2.77;;
19946;SDS011;10135;50.702;7.276;2024-02-21T10:38:32;5.27;;;2.50;;
19946;SDS011;10135;50.702;7.276;2024-02-21T10:40:33;2.93;;;2.70;;
19946;SDS011;10135;50.702;7.276;2024-02-21T10:42:34;5.80;;;2.83;;
19946;SDS011;10135;50.702;7.276;2024-02-21T10:44:37;5.70;;;3.00;;
19946;SDS011;10135;50.702;7.276;2024-02-21T10:46:40;4.43;;;2.77;;
19946;SDS011;10135;50.702;7.276;2024-02-21T10:48:44;4.20;;;2.60;;
19946;SDS011;10135;50.702;7.276;2024-02-21T10:51:12;4.37;;;2.43;;
19946;SDS011;10135;50.702;7.276;2024-02-21T10:56:22;6.00;;;2.67;;
19946;SDS011;10135;50.702;7.276;2024-02-21T10:58:30;6.33;;;2.50;;
19946;SDS011;10135;50.702;7.276;2024-02-21T11:00:32;5.60;;;3.00;;
19946;SDS011;10135;50.702;7.276;2024-02-21T11:02:34;6.73;;;3.10;;
19946;SDS011;10135;50.702;7.276;2024-02-21T11:04:36;5.57;;;3.70;;
19946;SDS011;10135;50.702;7.276;2024-02-21T11:06:39;4.60;;;3.20;;
19946;SDS011;10135;50.702;7.276;2024-02-21T11:08:41;4.47;;;3.00;;
19946;SDS011;10135;50.702;7.276;2024-02-21T11:10:45;5.73;;;3.10;;
19946;SDS011;10135;50.702;7.276;2024-02-21T11:12:46;5.77;;;3.33;;
19946;SDS011;10135;50.702;7.276;2024-02-21T11:14:48;4.60;;;3.00;;
19946;SDS011;10135;50.702;7.276;2024-02-21T11:16:48;5.23;;;3.03;;
19946;SDS011;10135;50.702;7.276;2024-02-21T11:18:49;4.27;;;2.97;;
19946;SDS011;10135;50.702;7.276;2024-02-21T11:20:50;11.63;;;5.63;;
19946;SDS011;10135;50.702;7.276;2024-02-21T11:22:51;8.27;;;3.83;;
19946;SDS011;10135;50.702;7.276;2024-02-21T11:24:52;6.40;;;4.20;;
19946;SDS011;10135;50.702;7.276;2024-02-21T11:26:53;4.93;;;3.60;;
19946;SDS011;10135;50.702;7.276;2024-02-21T11:28:57;5.87;;;4.20;;
19946;SDS011;10135;50.702;7.276;2024-02-21T11:31:10;4.37;;;3.70;;
19946;SDS011;10135;50.702;7.276;2024-02-21T11:33:15;7.17;;;3.50;;
19946;SDS011;10135;50.702;7.276;2024-02-21T11:35:20;5.93;;;3.20;;
19946;SDS011;10135;50.702;7.276;2024-02-21T11:37:20;3.50;;;3.20;;
19946;SDS011;10135;50.702;7.276;2024-02-21T11:39:25;3.67;;;3.37;;
19946;SDS011;10135;50.702;7.276;2024-02-21T11:41:26;5.97;;;3.97;;
19946;SDS011;10135;50.702;7.276;2024-02-21T11:43:27;6.80;;;3.60;;
19946;SDS011;10135;50.702;7.276;2024-02-21T11:45:28;5.77;;;3.10;;
19946;SDS011;10135;50.702;7.276;2024-02-21T11:47:29;6.83;;;3.13;;
19946;SDS011;10135;50.702;7.276;2024-02-21T11:49:29;5.53;;;3.80;;
19946;SDS011;10135;50.702;7.276;2024-02-21T11:51:31;7.20;;;3.13;;
19946;SDS011;10135;50.702;7.276;2024-02-21T11:53:31;3.90;;;2.80;;
19946;SDS011;10135;50.702;7.276;2024-02-21T11:55:33;3.53;;;2.30;;
19946;SDS011;10135;50.702;7.276;2024-02-21T11:57:34;3.80;;;2.77;;
19946;SDS011;10135;50.702;7.276;2024-02-21T11:59:41;7.20;;;2.83;;
19946;SDS011;10135;50.702;7.276;2024-02-21T12:01:41;5.30;;;2.70;;
19946;SDS011;10135;50.702;7.276;2024-02-21T12:03:42;3.67;;;2.53;;
19946;SDS011;10135;50.702;7.276;2024-02-21T12:05:49;3.93;;;2.10;;
19946;SDS011;10135;50.702;7.276;2024-02-21T12:07:50;3.50;;;2.37;;
19946;SDS011;10135;50.702;7.276;2024-02-21T12:09:52;9.73;;;2.43;;
19946;SDS011;10135;50.702;7.276;2024-02-21T12:11:59;2.47;;;2.27;;
19946;SDS011;10135;50.702;7.276;2024-02-21T12:14:05;3.43;;;2.57;;
19946;SDS011;10135;50.702;7.276;2024-02-21T12:16:06;4.20;;;3.00;;
19946;SDS011;10135;50.702;7.276;2024-02-21T12:18:06;5.90;;;2.60;;
19946;SDS011;10135;50.702;7.276;2024-02-21T12:20:07;3.17;;;2.30;;
19946;SDS011;10135;50.702;7.276;2024-02-21T12:22:16;4.37;;;2.60;;
19946;SDS011;10135;50.702;7.276;2024-02-21T12:24:26;7.57;;;2.80;;
19946;SDS011;10135;50.702;7.276;2024-02-21T12:26:28;4.60;;;2.50;;
19946;SDS011;10135;50.702;7.276;2024-02-21T12:28:29;6.47;;;2.90;;
19946;SDS011;10135;50.702;7.276;2024-02-21T12:30:30;4.63;;;2.73;;
19946;SDS011;10135;50.702;7.276;2024-02-21T12:32:33;4.73;;;2.63;;
19946;SDS011;10135;50.702;7.276;2024-02-21T12:34:34;4.97;;;2.77;;
19946;SDS011;10135;50.702;7.276;2024-02-21T12:36:40;3.77;;;2.33;;
19946;SDS011;10135;50.702;7.276;2024-02-21T12:38:43;4.80;;;2.53;;
19946;SDS011;10135;50.702;7.276;2024-02-21T12:40:44;2.97;;;2.47;;
19946;SDS011;10135;50.702;7.276;2024-02-21T12:42:44;4.77;;;2.50;;
19946;SDS011;10135;50.702;7.276;2024-02-21T12:44:45;3.47;;;2.43;;
19946;SDS011;10135;50.702;7.276;2024-02-21T12:46:46;8.20;;;2.60;;
19946;SDS011;10135;50.702;7.276;2024-02-21T12:48:51;5.47;;;2.43;;
19946;SDS011;10135;50.702;7.276;2024-02-21T12:50:52;7.23;;;2.63;;
19946;SDS011;10135;50.702;7.276;2024-02-21T12:52:53;6.30;;;2.80;;
19946;SDS011;10135;50.702;7.276;2024-02-21T12:54:53;5.13;;;2.33;;
19946;SDS011;10135;50.702;7.276;2024-02-21T12:56:56;3.43;;;2.63;;
19946;SDS011;10135;50.702;7.276;2024-02-21T12:58:57;4.57;;;2.67;;
19946;SDS011;10135;50.702;7.276;2024-02-21T13:00:58;4.10;;;2.40;;
19946;SDS011;10135;50.702;7.276;2024-02-21T13:02:59;5.07;;;2.47;;
19946;SDS011;10135;50.702;7.276;2024-02-21T13:04:59;5.47;;;2.63;;
19946;SDS011;10135;50.702;7.276;2024-02-21T13:07:02;3.73;;;2.50;;
19946;SDS011;10135;50.702;7.276;2024-02-21T13:09:02;3.33;;;2.40;;
19946;SDS011;10135;50.702;7.276;2024-02-21T13:11:07;5.07;;;2.30;;
19946;SDS011;10135;50.702;7.276;2024-02-21T13:13:08;3.20;;;2.17;;
19946;SDS011;10135;50.702;7.276;2024-02-21T13:15:08;3.80;;;2.20;;
19946;SDS011;10135;50.702;7.276;2024-02-21T13:17:11;4.47;;;2.47;;
19946;SDS011;10135;50.702;7.276;2024-02-21T13:19:12;5.03;;;2.37;;
19946;SDS011;10135;50.702;7.276;2024-02-21T13:21:17;4.07;;;2.37;;
19946;SDS011;10135;50.702;7.276;2024-02-21T13:23:18;6.57;;;2.70;;
19946;SDS011;10135;50.702;7.276;2024-02-21T13:25:21;6.23;;;2.50;;
19946;SDS011;10135;50.702;7.276;2024-02-21T13:27:22;3.27;;;2.20;;
19946;SDS011;10135;50.702;7.276;2024-02-21T13:29:22;4.37;;;2.47;;
19946;SDS011;10135;50.702;7.276;2024-02-21T13:31:23;3.33;;;2.33;;
19946;SDS011;10135;50.702;7.276;2024-02-21T13:33:25;6.17;;;2.20;;
19946;SDS011;10135;50.702;7.276;2024-02-21T13:35:25;4.67;;;2.30;;
19946;SDS011;10135;50.702;7.276;2024-02-21T13:37:28;4.00;;;2.10;;
19946;SDS011;10135;50.702;7.276;2024-02-21T13:39:29;5.47;;;2.60;;
19946;SDS011;10135;50.702;7.276;2024-02-21T13:41:30;2.27;;;2.07;;
19946;SDS011;10135;50.702;7.276;2024-02-21T13:43:31;5.53;;;2.13;;
19946;SDS011;10135;50.702;7.276;2024-02-21T13:45:31;3.27;;;2.43;;
19946;SDS011;10135;50.702;7.276;2024-02-21T13:47:33;4.17;;;2.30;;
19946;SDS011;10135;50.702;7.276;2024-02-21T13:49:34;5.07;;;2.30;;
19946;SDS011;10135;50.702;7.276;2024-02-21T13:51:35;3.80;;;2.27;;
19946;SDS011;10135;50.702;7.276;2024-02-21T13:53:36;4.03;;;2.20;;
19946;SDS011;10135;50.702;7.276;2024-02-21T13:55:37;5.70;;;2.50;;
19946;SDS011;10135;50.702;7.276;2024-02-21T13:57:38;5.13;;;2.63;;
19946;SDS011;10135;50.702;7.276;2024-02-21T13:59:39;5.57;;;2.30;;
19946;SDS011;10135;50.702;7.276;2024-02-21T14:01:39;5.77;;;2.63;;
19946;SDS011;10135;50.702;7.276;2024-02-21T14:03:40;21.53;;;8.37;;
19946;SDS011;10135;50.702;7.276;2024-02-21T14:05:41;10.57;;;4.53;;
19946;SDS011;10135;50.702;7.276;2024-02-21T14:07:41;9.40;;;4.13;;
19946;SDS011;10135;50.702;7.276;2024-02-21T14:09:42;9.40;;;5.53;;
19946;SDS011;10135;50.702;7.276;2024-02-21T14:11:43;6.87;;;4.57;;
19946;SDS011;10135;50.702;7.276;2024-02-21T14:13:45;11.50;;;4.13;;
19946;SDS011;10135;50.702;7.276;2024-02-21T14:15:45;11.17;;;4.47;;
19946;SDS011;10135;50.702;7.276;2024-02-21T14:17:47;5.53;;;3.93;;
19946;SDS011;10135;50.702;7.276;2024-02-21T14:19:48;5.43;;;3.73;;
19946;SDS011;10135;50.702;7.276;2024-02-21T14:21:49;4.63;;;3.47;;
19946;SDS011;10135;50.702;7.276;2024-02-21T14:23:49;11.37;;;4.60;;
19946;SDS011;10135;50.702;7.276;2024-02-21T14:25:50;6.37;;;3.20;;
19946;SDS011;10135;50.702;7.276;2024-02-21T14:27:51;5.20;;;3.43;;
19946;SDS011;10135;50.702;7.276;2024-02-21T14:29:51;5.70;;;3.13;;
19946;SDS011;10135;50.702;7.276;2024-02-21T14:31:53;6.87;;;3.10;;
19946;SDS011;10135;50.702;7.276;2024-02-21T14:33:53;7.37;;;4.10;;
19946;SDS011;10135;50.702;7.276;2024-02-21T14:35:54;4.60;;;3.00;;
19946;SDS011;10135;50.702;7.276;2024-02-21T14:37:55;5.17;;;2.80;;
19946;SDS011;10135;50.702;7.276;2024-02-21T14:39:57;3.10;;;2.40;;
19946;SDS011;10135;50.702;7.276;2024-02-21T14:41:57;4.73;;;2.30;;
19946;SDS011;10135;50.702;7.276;2024-02-21T14:43:59;4.30;;;2.40;;
19946;SDS011;10135;50.702;7.276;2024-02-21T14:46:01;5.90;;;2.40;;
19946;SDS011;10135;50.702;7.276;2024-02-21T14:48:04;3.67;;;2.20;;
19946;SDS011;10135;50.702;7.276;2024-02-21T14:50:05;2.60;;;2.10;;
19946;SDS011;10135;50.702;7.276;2024-02-21T14:52:07;2.17;;;1.90;;
19946;SDS011;10135;50.702;7.276;2024-02-21T14:54:07;6.03;;;2.17;;
19946;SDS011;10135;50.702;7.276;2024-02-21T14:56:14;4.17;;;2.13;;
19946;SDS011;10135;50.702;7.276;2024-02-21T14:58:17;3.90;;;2.37;;
19946;SDS011;10135;50.702;7.276;2024-02-21T15:00:19;4.10;;;2.10;;
19946;SDS011;10135;50.702;7.276;2024-02-21T15:02:22;4.80;;;2.00;;
19946;SDS011;10135;50.702;7.276;2024-02-21T15:04:23;4.90;;;2.03;;
19946;SDS011;10135;50.702;7.276;2024-02-21T15:06:24;2.77;;;1.80;;
19946;SDS011;10135;50.702;7.276;2024-02-21T15:08:26;2.83;;;1.87;;
19946;SDS011;10135;50.702;7.276;2024-02-21T15:10:27;5.33;;;2.00;;
19946;SDS011;10135;50.702;7.276;2024-02-21T15:12:28;3.93;;;2.50;;
19946;SDS011;10135;50.702;7.276;2024-02-21T15:14:28;6.00;;;2.60;;
19946;SDS011;10135;50.702;7.276;2024-02-21T15:16:29;8.47;;;2.73;;
19946;SDS011;10135;50.702;7.276;2024-02-21T15:18:30;5.57;;;2.40;;
19946;SDS011;10135;50.702;7.276;2024-02-21T15:20:33;4.97;;;2.40;;
19946;SDS011;10135;50.702;7.276;2024-02-21T15:22:34;3.93;;;2.40;;
19946;SDS011;10135;50.702;7.276;2024-02-21T15:24:38;3.87;;;2.40;;
19946;SDS011;10135;50.702;7.276;2024-02-21T15:26:40;2.77;;;2.30;;
19946;SDS011;10135;50.702;7.276;2024-02-21T15:28:40;3.17;;;2.33;;
19946;SDS011;10135;50.702;7.276;2024-02-21T15:30:41;2.77;;;2.00;;
19946;SDS011;10135;50.702;7.276;2024-02-21T15:32:42;3.63;;;2.00;;
19946;SDS011;10135;50.702;7.276;2024-02-21T15:34:45;6.17;;;3.03;;
19946;SDS011;10135;50.702;7.276;2024-02-21T15:36:46;2.90;;;2.30;;
19946;SDS011;10135;50.702;7.276;2024-02-21T15:38:47;5.03;;;2.30;;
19946;SDS011;10135;50.702;7.276;2024-02-21T15:40:48;3.00;;;2.43;;
19946;SDS011;10135;50.702;7.276;2024-02-21T15:42:50;4.23;;;2.03;;
19946;SDS011;10135;50.702;7.276;2024-02-21T15:44:51;4.53;;;2.07;;
19946;SDS011;10135;50.702;7.276;2024-02-21T15:46:52;2.23;;;1.90;;
19946;SDS011;10135;50.702;7.276;2024-02-21T15:48:53;4.30;;;2.20;;
19946;SDS011;10135;50.702;7.276;2024-02-21T15:50:54;2.80;;;1.87;;
19946;SDS011;10135;50.702;7.276;2024-02-21T15:52:54;5.53;;;1.83;;
19946;SDS011;10135;50.702;7.276;2024-02-21T15:54:55;3.47;;;2.07;;
19946;SDS011;10135;50.702;7.276;2024-02-21T15:56:56;4.50;;;2.03;;
19946;SDS011;10135;50.702;7.276;2024-02-21T15:58:56;3.20;;;2.00;;
19946;SDS011;10135;50.702;7.276;2024-02-21T16:00:57;4.67;;;2.10;;
19946;SDS011;10135;50.702;7.276;2024-02-21T16:02:59;3.90;;;1.83;;
19946;SDS011;10135;50.702;7.276;2024-02-21T16:05:00;4.73;;;2.17;;
19946;SDS011;10135;50.702;7.276;2024-02-21T16:07:02;11.47;;;2.10;;
19946;SDS011;10135;50.702;7.276;2024-02-21T16:09:03;4.57;;;2.10;;
19946;SDS011;10135;50.702;7.276;2024-02-21T16:11:13;3.60;;;2.10;;
19946;SDS011;10135;50.702;7.276;2024-02-21T16:13:16;3.03;;;2.10;;
19946;SDS011;10135;50.702;7.276;2024-02-21T16:15:17;3.30;;;2.30;;
19946;SDS011;10135;50.702;7.276;2024-02-21T16:17:18;4.57;;;2.00;;
19946;SDS011;10135;50.702;7.276;2024-02-21T16:19:18;3.00;;;1.90;;
19946;SDS011;10135;50.702;7.276;2024-02-21T16:21:19;3.47;;;2.00;;
19946;SDS011;10135;50.702;7.276;2024-02-21T16:23:20;3.83;;;1.60;;
19946;SDS011;10135;50.702;7.276;2024-02-21T16:25:20;4.77;;;1.90;;
19946;SDS011;10135;50.702;7.276;2024-02-21T16:27:21;5.20;;;1.87;;
19946;SDS011;10135;50.702;7.276;2024-02-21T16:29:22;2.30;;;1.90;;
19946;SDS011;10135;50.702;7.276;2024-02-21T16:31:23;2.00;;;1.80;;
19946;SDS011;10135;50.702;7.276;2024-02-21T16:33:23;3.40;;;2.10;;
19946;SDS011;10135;50.702;7.276;2024-02-21T16:35:24;3.53;;;1.93;;
19946;SDS011;10135;50.702;7.276;2024-02-21T16:37:29;3.33;;;1.70;;
19946;SDS011;10135;50.702;7.276;2024-02-21T16:39:30;3.63;;;2.00;;
19946;SDS011;10135;50.702;7.276;2024-02-21T16:41:30;3.23;;;1.90;;
19946;SDS011;10135;50.702;7.276;2024-02-21T16:43:31;4.20;;;1.80;;
19946;SDS011;10135;50.702;7.276;2024-02-21T16:45:32;3.07;;;1.90;;
19946;SDS011;10135;50.702;7.276;2024-02-21T16:47:33;6.10;;;2.00;;
19946;SDS011;10135;50.702;7.276;2024-02-21T16:49:34;3.03;;;2.10;;
19946;SDS011;10135;50.702;7.276;2024-02-21T16:51:35;2.47;;;1.80;;
19946;SDS011;10135;50.702;7.276;2024-02-21T16:53:36;4.87;;;1.90;;
19946;SDS011;10135;50.702;7.276;2024-02-21T16:55:36;3.30;;;1.77;;
19946;SDS011;10135;50.702;7.276;2024-02-21T16:57:37;3.67;;;1.80;;
19946;SDS011;10135;50.702;7.276;2024-02-21T16:59:38;3.40;;;1.83;;
19946;SDS011;10135;50.702;7.276;2024-02-21T17:01:39;3.43;;;2.00;;
19946;SDS011;10135;50.702;7.276;2024-02-21T17:03:40;4.83;;;2.30;;
19946;SDS011;10135;50.702;7.276;2024-02-21T17:05:41;7.07;;;2.00;;
19946;SDS011;10135;50.702;7.276;2024-02-21T17:07:42;3.80;;;2.20;;
19946;SDS011;10135;50.702;7.276;2024-02-21T17:09:42;6.37;;;2.30;;
19946;SDS011;10135;50.702;7.276;2024-02-21T17:11:43;3.03;;;2.00;;
19946;SDS011;10135;50.702;7.276;2024-02-21T17:13:44;10.13;;;2.13;;
19946;SDS011;10135;50.702;7.276;2024-02-21T17:15:44;4.20;;;2.00;;
19946;SDS011;10135;50.702;7.276;2024-02-21T17:17:46;5.37;;;2.57;;
19946;SDS011;10135;50.702;7.276;2024-02-21T17:19:46;5.70;;;2.70;;
19946;SDS011;10135;50.702;7.276;2024-02-21T17:21:47;4.37;;;2.70;;
19946;SDS011;10135;50.702;7.276;2024-02-21T17:23:47;5.47;;;3.43;;
19946;SDS011;10135;50.702;7.276;2024-02-21T17:25:48;4.27;;;3.17;;
19946;SDS011;10135;50.702;7.276;2024-02-21T17:27:49;4.87;;;3.50;;
19946;SDS011;10135;50.702;7.276;2024-02-21T17:29:50;6.10;;;2.40;;
19946;SDS011;10135;50.702;7.276;2024-02-21T17:31:50;3.13;;;2.70;;
19946;SDS011;10135;50.702;7.276;2024-02-21T17:33:51;3.77;;;2.93;;
19946;SDS011;10135;50.702;7.276;2024-02-21T17:35:52;6.93;;;3.43;;
19946;SDS011;10135;50.702;7.276;2024-02-21T17:37:53;5.13;;;3.40;;
19946;SDS011;10135;50.702;7.276;2024-02-21T17:39:54;4.47;;;3.20;;
19946;SDS011;10135;50.702;7.276;2024-02-21T17:41:55;9.77;;;5.53;;
19946;SDS011;10135;50.702;7.276;2024-02-21T17:43:56;5.00;;;3.17;;
19946;SDS011;10135;50.702;7.276;2024-02-21T17:46:00;5.07;;;3.20;;
19946;SDS011;10135;50.702;7.276;2024-02-21T17:48:02;3.87;;;3.20;;
19946;SDS011;10135;50.702;7.276;2024-02-21T17:50:03;4.43;;;2.97;;
19946;SDS011;10135;50.702;7.276;2024-02-21T17:52:05;4.17;;;3.00;;
19946;SDS011;10135;50.702;7.276;2024-02-21T17:54:06;3.23;;;2.70;;
19946;SDS011;10135;50.702;7.276;2024-02-21T17:56:06;5.63;;;2.53;;
19946;SDS011;10135;50.702;7.276;2024-02-21T17:58:07;2.47;;;1.97;;
19946;SDS011;10135;50.702;7.276;2024-02-21T18:00:09;4.57;;;2.40;;
19946;SDS011;10135;50.702;7.276;2024-02-21T18:02:11;3.87;;;2.30;;
19946;SDS011;10135;50.702;7.276;2024-02-21T18:04:16;4.60;;;3.50;;
19946;SDS011;10135;50.702;7.276;2024-02-21T18:06:17;2.97;;;2.60;;
19946;SDS011;10135;50.702;7.276;2024-02-21T18:08:17;3.77;;;2.60;;
19946;SDS011;10135;50.702;7.276;2024-02-21T18:10:18;5.40;;;2.63;;
19946;SDS011;10135;50.702;7.276;2024-02-21T18:12:19;5.80;;;2.30;;
19946;SDS011;10135;50.702;7.276;2024-02-21T18:14:19;2.50;;;2.20;;
19946;SDS011;10135;50.702;7.276;2024-02-21T18:16:21;2.00;;;1.90;;
19946;SDS011;10135;50.702;7.276;2024-02-21T18:18:22;2.80;;;2.10;;